Time;durP1;ratioP1;P1;durP2;ratioP2;P2;SDS_P1;SDS_P2;PMS_P1;PMS_P2;Temp;Humidity;BMP_temperature;BMP_pressure;BME280_temperature;BME280_humidity;BME280_pressure;Samples;Min_cycle;Max_cycle;Signal;HPM_P1;HPM_P2
2023/01/02 00:02:22;;;;;;;3.30;1.95;;;16.10;53.70;;;15.14;52.36;101313.50;12259064;19;20011;-84
2023/01/02 00:06:24;;;;;;;4.38;2.25;;;16.00;53.70;;;15.17;52.43;101323.81;12252885;19;20035;-84
2023/01/02 00:10:26;;;;;;;2.97;1.95;;;16.00;53.70;;;15.18;52.54;101312.38;12257307;19;20027;-84
2023/01/02 00:14:28;;;;;;;3.88;2.42;;;16.00;53.70;;;15.06;52.47;101271.06;12252256;19;20043;-84
2023/01/02 00:18:30;;;;;;;6.75;2.08;;;16.00;53.70;;;15.16;52.39;101273.97;12254943;19;20028;-83
2023/01/02 00:22:32;;;;;;;3.00;2.35;;;16.00;53.70;;;15.20;52.45;101276.28;12251160;19;20391;-83
2023/01/02 00:26:34;;;;;;;3.17;2.63;;;16.10;53.90;;;15.20;52.44;101272.78;12253111;19;20014;-83
2023/01/02 00:30:37;;;;;;;2.72;1.80;;;16.10;53.90;;;15.11;52.50;101257.63;12251356;19;20014;-84
2023/01/02 00:34:39;;;;;;;4.22;2.33;;;16.10;54.00;;;15.11;52.57;101252.38;12250428;19;20017;-84
2023/01/02 00:38:42;;;;;;;3.00;2.15;;;16.10;54.10;;;15.18;52.63;101259.75;12252706;19;20025;-84
2023/01/02 00:42:44;;;;;;;3.00;2.00;;;16.10;54.10;;;15.06;52.46;101244.78;12248158;19;20014;-83
2023/01/02 00:46:45;;;;;;;3.42;2.30;;;16.10;54.10;;;15.18;52.65;101257.13;12249079;19;20076;-84
2023/01/02 00:50:48;;;;;;;2.72;2.00;;;16.10;54.30;;;15.13;52.61;101258.38;12251781;19;20057;-84
2023/01/02 00:54:49;;;;;;;3.03;2.15;;;16.00;54.60;;;14.96;52.74;101212.13;12246661;19;20023;-83
2023/01/02 00:58:51;;;;;;;2.30;1.75;;;16.10;54.30;;;14.90;52.72;101189.69;12248862;19;20014;-83
2023/01/02 01:02:58;;;;;;;2.70;1.80;;;16.10;54.30;;;15.00;52.68;101209.19;12246001;19;20022;-83
2023/01/02 01:06:59;;;;;;;2.50;2.20;;;16.10;54.40;;;15.03;52.77;101201.09;12242036;19;20786;-83
2023/01/02 01:11:11;;;;;;;1.67;1.58;;;16.10;54.40;;;15.13;52.97;101221.56;12244439;19;20061;-83
2023/01/02 01:15:13;;;;;;;2.33;1.65;;;16.10;54.50;;;15.04;52.78;101218.59;12243538;19;20359;-83
2023/01/02 01:19:15;;;;;;;2.58;1.52;;;16.10;54.50;;;15.05;52.95;101215.00;12258029;19;20047;-84
2023/01/02 01:23:16;;;;;;;2.40;1.95;;;16.00;54.50;;;15.15;52.99;101238.91;12256402;19;20016;-83
2023/01/02 01:27:18;;;;;;;3.08;2.05;;;16.00;54.50;;;15.04;52.90;101212.44;12255293;19;20098;-83
2023/01/02 01:31:22;;;;;;;2.28;1.77;;;16.00;54.50;;;15.11;53.00;101216.38;12255978;19;20006;-83
2023/01/02 01:35:24;;;;;;;3.47;1.83;;;16.00;54.60;;;14.99;52.94;101197.00;12252818;19;20018;-83
2023/01/02 01:39:25;;;;;;;4.13;2.63;;;16.00;54.60;;;15.08;53.01;101218.38;12258365;19;20133;-83
2023/01/02 01:43:51;;;;;;;4.03;2.00;;;16.00;54.70;;;15.03;52.99;101216.88;12255939;19;20044;-83
2023/01/02 01:47:59;;;;;;;2.67;1.73;;;16.00;54.90;;;14.97;52.96;101204.13;12252206;19;20482;-83
2023/01/02 01:52:06;;;;;;;2.88;1.80;;;15.90;54.70;;;14.96;53.05;101196.34;12253986;19;20489;-84
2023/01/02 01:56:10;;;;;;;5.18;1.80;;;15.90;54.60;;;14.98;53.17;101186.56;12268926;19;20007;-84
2023/01/02 02:00:13;;;;;;;3.13;1.95;;;15.90;54.60;;;14.99;53.17;101178.59;12270384;19;20002;-84
2023/01/02 02:04:17;;;;;;;2.33;1.88;;;15.90;54.40;;;14.97;53.10;101162.06;12264109;19;20030;-84
2023/01/02 02:08:43;;;;;;;2.53;1.80;;;15.90;54.50;;;15.00;53.29;101179.44;12267145;19;20014;-84
2023/01/02 02:12:45;;;;;;;5.32;2.13;;;15.90;54.50;;;14.93;53.32;101152.72;12263582;19;20018;-85
2023/01/02 02:17:11;;;;;;;4.43;2.40;;;15.90;54.50;;;14.96;52.98;101141.09;12268119;19;20007;-85
2023/01/02 02:21:34;;;;;;;2.45;1.80;;;15.90;54.50;;;15.04;53.26;101155.47;12263333;19;20014;-84
2023/01/02 02:26:03;;;;;;;3.95;1.80;;;15.90;54.30;;;15.08;53.30;101155.25;12265119;19;20022;-83
2023/01/02 02:30:47;;;;;;;5.10;1.88;;;16.00;54.20;;;15.05;53.27;101146.59;12264427;19;20018;-83
2023/01/02 02:35:16;;;;;;;2.67;1.58;;;16.00;54.20;;;15.05;53.28;101116.84;12252838;19;20046;-84
2023/01/02 02:39:38;;;;;;;3.03;1.67;;;16.00;54.10;;;15.13;53.30;101108.44;12261486;19;20006;-84
2023/01/02 02:44:27;;;;;;;3.72;2.10;;;16.00;54.10;;;15.16;53.29;101105.59;12258660;19;20007;-84
2023/01/02 02:48:55;;;;;;;1.50;1.40;;;16.10;54.00;;;15.07;53.09;101108.81;12257691;19;20024;-84
2023/01/02 02:53:05;;;;;;;3.45;2.10;;;16.10;54.00;;;15.19;53.16;101108.00;12254036;19;20031;-84
2023/01/02 02:57:08;;;;;;;2.45;1.95;;;16.10;54.00;;;15.19;53.20;101105.38;12258182;19;20477;-83
2023/01/02 03:01:15;;;;;;;3.72;1.73;;;16.10;54.20;;;15.13;53.20;101101.38;12251343;19;20011;-84
2023/01/02 03:05:42;;;;;;;2.72;2.10;;;16.10;53.80;;;15.16;53.26;101092.44;12252832;19;20014;-84
2023/01/02 03:10:03;;;;;;;2.30;2.03;;;16.10;53.70;;;15.25;53.18;101104.94;12253902;19;20029;-83
2023/01/02 03:15:06;;;;;;;3.60;1.80;;;16.20;53.60;;;15.27;53.15;101093.38;12252663;19;20346;-84
2023/01/02 03:19:19;;;;;;;2.35;1.67;;;16.20;53.70;;;15.23;53.09;101086.66;12247618;19;20023;-84
2023/01/02 03:23:25;;;;;;;2.38;2.00;;;16.20;53.60;;;15.28;53.27;101081.03;12250609;19;20497;-83
2023/01/02 03:27:32;;;;;;;2.33;1.70;;;16.20;53.50;;;15.00;53.04;101032.97;12249495;19;20010;-83
2023/01/02 03:31:38;;;;;;;2.45;1.83;;;16.20;53.50;;;15.19;53.14;101063.28;12252438;19;20007;-84
2023/01/02 03:35:54;;;;;;;2.40;1.90;;;16.30;53.50;;;15.20;52.89;101059.69;12250334;19;20082;-83
2023/01/02 03:40:01;;;;;;;;;;;16.30;53.50;;;15.25;53.13;101062.84;12249254;19;20043;-83
2023/01/02 03:44:06;;;;;;;3.83;1.83;;;16.30;53.50;;;15.28;53.07;101067.88;12246865;19;19921;-83
2023/01/02 03:48:41;;;;;;;2.65;1.90;;;16.20;53.40;;;15.29;52.99;101072.22;12245694;19;20007;-83
2023/01/02 03:52:43;;;;;;;2.97;2.00;;;16.30;53.40;;;15.23;53.08;101044.56;12248252;19;20018;-83
2023/01/02 03:57:07;;;;;;;2.47;1.92;;;16.20;53.40;;;15.31;53.00;101064.22;12249337;19;20010;-84
2023/01/02 04:01:21;;;;;;;2.47;1.90;;;16.20;53.40;;;15.25;52.96;101060.22;12248941;19;20356;-83
2023/01/02 04:05:46;;;;;;;3.42;1.88;;;16.30;53.40;;;15.31;52.89;101062.44;12245142;19;20038;-83
2023/01/02 04:09:49;;;;;;;3.60;2.38;;;16.30;53.40;;;15.35;53.00;101061.25;12247999;19;20025;-83
2023/01/02 04:14:01;;;;;;;2.80;2.03;;;16.30;53.40;;;15.29;53.03;101045.91;12246747;19;20078;-83
2023/01/02 04:18:15;;;;;;;3.13;1.65;;;16.30;53.40;;;15.19;53.09;101031.72;12258908;19;20045;-84
2023/01/02 04:22:25;;;;;;;2.70;2.08;;;16.30;53.30;;;15.36;53.02;101048.94;12262449;19;20014;-83
2023/01/02 04:26:38;;;;;;;2.80;1.75;;;16.30;53.30;;;15.28;52.86;101041.56;12260157;19;20015;-83
2023/01/02 04:30:45;;;;;;;4.03;2.20;;;16.30;53.30;;;15.30;53.06;101039.69;12263262;19;20010;-84
2023/01/02 04:34:49;;;;;;;2.60;1.67;;;16.30;53.20;;;15.13;52.93;101019.00;12256497;19;20019;-84
2023/01/02 04:38:51;;;;;;;4.63;2.20;;;16.30;53.20;;;15.33;52.85;101047.38;12257528;19;20036;-84
2023/01/02 04:42:54;;;;;;;2.85;2.00;;;16.30;53.20;;;15.25;52.95;101041.78;12255569;19;20035;-83
2023/01/02 04:46:56;;;;;;;3.65;2.03;;;16.30;53.20;;;15.35;52.92;101055.16;12257305;19;20032;-84
2023/01/02 04:50:58;;;;;;;3.00;1.92;;;16.30;53.20;;;15.28;52.90;101036.31;12264105;19;20007;-84
2023/01/02 04:55:00;;;;;;;3.05;2.20;;;16.30;53.10;;;15.04;52.87;101000.28;12265148;19;20006;-83
2023/01/02 04:59:02;;;;;;;3.20;2.03;;;16.30;53.10;;;15.07;52.82;100998.34;12265732;19;20010;-84
2023/01/02 05:03:04;;;;;;;2.42;2.08;;;16.30;53.20;;;15.35;52.95;101042.00;12260726;19;20487;-84
2023/01/02 05:07:05;;;;;;;4.75;2.20;;;16.30;53.50;;;15.05;52.87;100990.59;12261821;19;20417;-84
2023/01/02 05:11:19;;;;;;;4.40;2.10;;;16.30;53.10;;;15.37;52.91;101045.38;12263677;19;20082;-84
2023/01/02 05:15:20;;;;;;;2.70;1.98;;;16.30;53.20;;;15.28;52.95;101031.06;12256148;19;20022;-84
2023/01/02 05:19:22;;;;;;;4.53;2.10;;;16.30;53.10;;;15.40;52.94;101040.72;12263861;19;20010;-83
2023/01/02 05:27:44;;;;;;;2.90;2.22;;;16.30;53.10;;;15.30;52.71;101023.91;12257566;19;20011;-83
2023/01/02 05:31:46;;;;;;;3.60;2.30;;;16.30;53.00;;;15.38;52.95;101032.09;12255381;19;20019;-83
2023/01/02 05:35:48;;;;;;;2.05;1.73;;;16.30;53.10;;;15.44;52.88;101042.19;12259959;19;20010;-85
2023/01/02 05:39:50;;;;;;;1.90;1.67;;;16.40;53.00;;;15.45;52.89;101036.00;12258939;19;20030;-83
2023/01/02 05:43:53;;;;;;;3.10;2.22;;;16.40;53.00;;;15.33;52.88;101015.78;12255566;19;20065;-84
2023/01/02 05:47:55;;;;;;;3.20;2.28;;;16.30;52.90;;;15.35;52.89;101013.91;12250957;19;20552;-83
2023/01/02 05:51:57;;;;;;;3.65;2.08;;;16.40;52.90;;;15.32;52.83;101014.13;12254936;19;20039;-83
2023/01/02 05:56:16;;;;;;;2.38;1.98;;;16.40;52.80;;;15.35;52.85;101015.69;12256642;19;20026;-83
2023/01/02 06:00:18;;;;;;;2.08;1.85;;;16.40;52.80;;;15.44;52.83;101026.38;12252735;19;20018;-83
2023/01/02 06:04:20;;;;;;;2.20;1.58;;;16.40;52.80;;;15.48;52.88;101027.03;12253184;19;20022;-84
2023/01/02 06:08:22;;;;;;;3.10;1.92;;;16.40;52.70;;;15.48;52.83;101025.25;12257744;19;20015;-83
2023/01/02 06:12:24;;;;;;;2.20;1.77;;;16.40;52.70;;;15.51;52.68;101023.34;12253455;19;20012;-83
2023/01/02 06:16:26;;;;;;;1.98;1.80;;;16.50;52.60;;;15.51;52.81;101018.09;12251351;19;20388;-83
2023/01/02 06:20:28;;;;;;;2.22;1.80;;;16.50;52.70;;;15.45;52.72;101008.84;12254017;19;20533;-83
2023/01/02 06:24:30;;;;;;;4.03;1.75;;;16.50;52.60;;;15.45;52.81;100996.50;12246457;19;20111;-83
2023/01/02 06:28:32;;;;;;;2.30;2.00;;;16.50;52.40;;;15.53;52.75;101008.25;12253216;19;20012;-83
2023/01/02 06:32:34;;;;;;;2.50;1.67;;;16.50;52.50;;;15.54;52.66;101002.91;12253937;19;20011;-83
2023/01/02 06:36:36;;;;;;;1.73;1.58;;;16.50;52.50;;;15.51;52.62;100997.84;12252996;19;20010;-83
2023/01/02 06:40:39;;;;;;;2.30;2.10;;;16.50;52.40;;;15.62;52.61;101012.88;12265029;19;20010;-83
2023/01/02 06:44:41;;;;;;;2.15;1.73;;;16.50;52.30;;;15.53;52.54;100995.97;12264056;19;20031;-84
2023/01/02 06:48:43;;;;;;;4.10;1.70;;;16.50;52.30;;;15.69;52.56;101014.16;12265669;19;20018;-84
2023/01/02 06:52:44;;;;;;;2.17;1.98;;;16.60;52.30;;;15.66;52.63;101016.97;12263942;19;20070;-84
2023/01/02 06:56:46;;;;;;;3.58;2.03;;;16.70;52.20;;;15.74;52.49;101017.28;12262835;19;20026;-83
2023/01/02 07:00:48;;;;;;;3.45;1.90;;;16.70;52.10;;;15.79;52.58;101025.69;12262767;19;20461;-84
2023/01/02 07:04:50;;;;;;;1.92;1.75;;;16.80;52.20;;;15.64;52.38;100984.66;12258653;19;20015;-83
2023/01/02 07:08:52;;;;;;;2.28;1.67;;;16.80;52.00;;;15.80;52.60;101008.13;12262196;19;20010;-83
2023/01/02 07:12:54;;;;;;;2.35;1.70;;;16.90;52.00;;;15.65;52.43;100992.44;12254436;19;20057;-84
2023/01/02 07:16:55;;;;;;;4.35;2.00;;;16.90;51.90;;;15.96;52.43;101026.25;12257604;19;20006;-83
2023/01/02 07:20:57;;;;;;;3.72;1.95;;;16.90;51.90;;;15.89;52.32;101018.81;12258693;19;20041;-83
2023/01/02 07:25:00;;;;;;;2.05;1.83;;;17.00;51.80;;;15.90;52.59;101012.63;12259970;19;20018;-85
2023/01/02 07:29:02;;;;;;;2.22;1.67;;;17.00;51.80;;;16.08;52.51;101041.19;12264108;19;20036;-83
2023/01/02 07:33:04;;;;;;;4.80;2.10;;;17.10;51.80;;;16.14;52.42;101059.16;12257767;19;20021;-84
2023/01/02 07:37:06;;;;;;;2.15;1.73;;;17.20;51.70;;;16.16;52.31;101057.28;12260742;19;20482;-83
2023/01/02 07:41:16;;;;;;;2.05;1.83;;;17.10;51.50;;;16.09;52.22;101045.47;12256090;19;20015;-85
2023/01/02 07:45:17;;;;;;;4.43;2.00;;;17.20;51.60;;;16.21;52.32;101055.13;12253556;19;20009;-82
2023/01/02 07:49:19;;;;;;;3.10;1.88;;;17.20;51.40;;;16.27;51.99;101070.50;12257564;19;20473;-84
2023/01/02 07:53:21;;;;;;;2.50;1.65;;;17.30;51.50;;;15.84;52.07;100989.34;12255780;19;20007;-84
2023/01/02 07:57:23;;;;;;;3.85;1.75;;;17.30;51.40;;;16.20;52.20;101050.81;12254421;19;20010;-83
2023/01/02 08:01:26;;;;;;;1.90;1.58;;;17.30;51.40;;;16.38;52.04;101083.72;12259048;19;20010;-84
2023/01/02 08:05:32;;;;;;;2.85;1.73;;;17.30;51.20;;;16.29;52.04;101068.59;12266454;19;20014;-85
2023/01/02 08:09:33;;;;;;;1.85;1.67;;;17.40;51.30;;;16.35;51.80;101081.31;12273496;19;20018;-85
2023/01/02 08:13:39;;;;;;;3.17;1.88;;;17.40;51.20;;;16.42;51.89;101083.47;12269777;19;20017;-85
2023/01/02 08:17:41;;;;;;;2.60;1.83;;;17.50;51.10;;;16.48;51.81;101099.69;12271593;19;20024;-85
2023/01/02 08:21:43;;;;;;;2.65;2.03;;;17.50;51.00;;;16.51;51.83;101102.09;12269525;19;20019;-84
2023/01/02 08:25:46;;;;;;;2.88;1.48;;;17.50;51.00;;;16.51;51.72;101091.56;12275893;19;20002;-84
2023/01/02 08:29:48;;;;;;;1.95;1.73;;;17.50;51.30;;;16.23;51.87;101031.28;12278437;19;20481;-83
2023/01/02 08:33:50;;;;;;;2.13;1.48;;;17.50;51.00;;;16.54;51.90;101080.78;12270985;19;20653;-84
2023/01/02 08:37:53;;;;;;;3.08;1.90;;;17.60;51.10;;;16.60;51.65;101084.75;12279125;19;20011;-84
2023/01/02 08:41:57;;;;;;;1.52;1.42;;;17.60;50.80;;;16.55;51.77;101073.72;12279151;19;20014;-84
2023/01/02 08:46:06;;;;;;;2.28;1.67;;;17.60;50.90;;;16.52;51.77;101066.88;12269227;19;20086;-84
2023/01/02 08:50:08;;;;;;;3.58;1.80;;;17.60;50.80;;;16.68;51.70;101084.19;12275380;19;20469;-84
2023/01/02 08:54:10;;;;;;;3.03;1.90;;;17.60;50.80;;;16.40;51.63;101033.53;12272388;19;20003;-84
2023/01/02 08:58:12;;;;;;;3.65;1.65;;;17.70;50.80;;;16.72;51.59;101089.13;12278426;19;20014;-84
2023/01/02 09:02:14;;;;;;;2.45;1.70;;;17.70;50.70;;;16.74;51.47;101087.22;12272442;19;20014;-84
2023/01/02 09:06:18;;;;;;;1.88;1.33;;;17.70;50.60;;;16.74;51.28;101073.16;12267101;19;20362;-85
2023/01/02 09:10:20;;;;;;;1.75;1.60;;;17.70;50.70;;;16.74;51.56;101076.66;12270336;19;20006;-84
2023/01/02 09:14:22;;;;;;;1.73;1.27;;;17.80;50.50;;;16.81;51.53;101092.88;12266617;19;20494;-84
2023/01/02 09:18:24;;;;;;;3.53;1.35;;;17.80;50.40;;;16.74;51.44;101078.44;12271470;19;20010;-84
2023/01/02 09:22:33;;;;;;;3.25;1.67;;;17.90;50.50;;;16.89;51.27;101103.69;12267907;19;20485;-84
2023/01/02 09:26:41;;;;;;;5.28;1.70;;;17.80;50.40;;;16.92;51.34;101116.66;12267226;19;20015;-85
2023/01/02 09:30:44;;;;;;;2.13;1.58;;;17.90;50.30;;;16.94;51.32;101106.00;12274328;19;20021;-85
2023/01/02 09:34:49;;;;;;;5.07;1.80;;;17.90;50.20;;;16.92;51.34;101082.34;12269322;19;20461;-85
2023/01/02 09:38:54;;;;;;;1.98;1.58;;;18.00;50.20;;;16.80;51.33;101068.31;12270409;19;20014;-85
2023/01/02 09:42:58;;;;;;;1.42;1.20;;;18.00;50.50;;;16.97;51.11;101095.22;12272608;19;20011;-85
2023/01/02 09:47:25;;;;;;;1.38;1.27;;;18.00;50.20;;;17.02;50.93;101093.06;12279081;19;20010;-83
2023/01/02 09:51:27;;;;;;;1.38;1.25;;;18.30;50.00;;;17.01;50.85;101071.13;12282053;19;20046;-85
2023/01/02 09:56:08;;;;;;;2.95;1.50;;;18.10;50.10;;;16.89;50.86;101050.94;12285617;19;20022;-86
2023/01/02 10:00:19;;;;;;;1.63;1.35;;;18.10;50.20;;;17.19;51.06;101086.47;12279295;19;20025;-85
2023/01/02 10:04:58;;;;;;;1.45;1.15;;;18.20;50.10;;;17.21;51.02;101079.28;12266109;19;20445;-85
2023/01/02 10:09:49;;;;;;;3.10;1.40;;;18.20;50.10;;;17.24;51.02;101064.03;12277385;19;20492;-86
2023/01/02 10:14:24;;;;;;;2.70;1.30;;;18.30;49.50;;;17.30;50.96;101068.00;12267369;19;20013;-85
2023/01/02 10:18:31;;;;;;;;;;;18.40;49.90;;;17.13;50.92;101019.19;12266241;19;20009;-85
2023/01/02 10:22:54;;;;;;;1.60;1.30;;;18.40;50.50;;;17.26;50.92;101037.53;12263211;19;19926;-86
2023/01/02 10:26:59;;;;;;;2.50;1.70;;;18.40;49.60;;;17.34;50.74;101039.59;12262426;19;20014;-85
2023/01/02 10:31:07;;;;;;;1.60;1.50;;;18.40;49.70;;;17.25;50.79;101012.97;12261328;19;20575;-86
2023/01/02 10:35:32;;;;;;;1.52;1.20;;;18.50;49.80;;;17.46;50.69;101046.53;12258867;19;20007;-86
2023/01/02 10:39:34;;;;;;;1.42;1.30;;;18.50;49.70;;;17.22;50.79;100991.22;12261729;19;20050;-85
2023/01/02 10:43:38;;;;;;;4.50;2.13;;;18.50;49.70;;;17.50;50.49;101032.13;12260991;19;20015;-84
2023/01/02 10:47:40;;;;;;;3.08;2.10;;;18.50;50.00;;;17.54;50.56;101012.41;12259310;19;20063;-86
2023/01/02 10:51:57;;;;;;;1.83;1.33;;;18.50;49.40;;;17.55;50.50;101014.13;12268841;19;20351;-85
2023/01/02 10:56:19;;;;;;;1.70;1.60;;;18.60;49.60;;;17.48;50.54;101008.47;12269495;19;20037;-86
2023/01/02 11:00:30;;;;;;;4.07;1.73;;;18.60;49.70;;;17.57;50.41;101014.81;12267240;19;20050;-85
2023/01/02 11:04:41;;;;;;;1.27;1.02;;;18.60;49.50;;;17.52;50.45;100995.03;12269887;19;20011;-85
2023/01/02 11:08:43;;;;;;;2.17;1.50;;;18.60;49.30;;;17.70;50.56;101020.78;12273223;19;20011;-85
2023/01/02 11:12:46;;;;;;;2.70;1.80;;;18.60;49.40;;;17.47;50.13;100984.81;12275190;19;20525;-85
2023/01/02 11:16:49;;;;;;;2.45;1.30;;;18.70;49.40;;;17.62;50.27;101004.72;12276077;19;20080;-85
2023/01/02 11:21:02;;;;;;;1.75;1.20;;;18.70;49.40;;;17.68;50.34;101009.50;12274176;19;20007;-85
2023/01/02 11:25:38;;;;;;;2.78;1.73;;;18.70;49.60;;;17.75;50.02;101015.16;12268932;19;20028;-85
2023/01/02 11:29:47;;;;;;;3.92;1.45;;;18.70;49.30;;;17.75;50.03;101016.94;12275261;19;20403;-85
2023/01/02 11:33:51;;;;;;;1.67;1.23;;;18.70;49.30;;;17.52;49.91;100987.94;12266143;19;20018;-85
2023/01/02 11:37:53;;;;;;;2.97;1.58;;;18.80;49.40;;;17.56;50.04;100988.53;12269482;19;20044;-85
2023/01/02 11:46:46;;;;;;;4.13;1.60;;;18.80;49.20;;;17.57;50.04;100985.75;12269161;19;20073;-86
2023/01/02 11:50:49;;;;;;;5.32;1.90;;;18.80;49.30;;;17.78;49.88;101025.47;12257428;19;20616;-85
2023/01/02 11:55:42;;;;;;;1.60;1.17;;;18.80;49.20;;;17.79;49.74;101032.44;12265923;19;20019;-85
2023/01/02 11:59:48;;;;;;;3.13;1.33;;;18.80;49.30;;;17.83;49.99;101022.50;12269101;19;20021;-85
2023/01/02 12:03:50;;;;;;;3.00;1.58;;;18.80;49.30;;;17.69;50.10;100998.00;12266171;19;20017;-86
2023/01/02 12:08:00;;;;;;;3.25;1.45;;;18.70;49.40;;;17.84;49.93;101024.16;12259456;19;20027;-86
2023/01/02 12:12:35;;;;;;;3.20;1.70;;;18.80;49.30;;;17.68;49.93;101004.22;12263235;19;20035;-86
2023/01/02 12:17:09;;;;;;;2.63;1.33;;;18.80;49.30;;;17.83;49.63;101033.88;12272368;19;20021;-85
2023/01/02 12:21:34;;;;;;;3.22;1.48;;;18.80;49.60;;;17.66;49.97;100995.59;12270385;19;20018;-84
2023/01/02 12:26:06;;;;;;;1.88;1.58;;;18.80;49.70;;;17.83;49.83;101030.41;12262599;19;20021;-85
2023/01/02 12:30:14;;;;;;;5.03;1.60;;;18.80;49.40;;;17.86;49.65;101027.53;12263089;19;20026;-86
2023/01/02 12:34:28;;;;;;;2.10;1.38;;;18.80;49.60;;;17.86;49.63;101033.63;12263986;19;20089;-85
2023/01/02 12:38:50;;;;;;;2.50;1.42;;;18.80;49.30;;;17.85;49.77;101044.34;12266777;19;20010;-85
2023/01/02 12:43:15;;;;;;;1.50;1.23;;;18.80;49.50;;;17.60;49.55;100996.06;12264881;19;20015;-86
2023/01/02 12:47:26;;;;;;;4.13;1.40;;;18.80;49.40;;;17.84;49.61;101035.56;12261527;19;20557;-86
2023/01/02 12:51:58;;;;;;;2.97;1.77;;;18.80;49.30;;;17.80;49.88;101034.13;12266198;19;20003;-85
2023/01/02 12:56:02;;;;;;;3.45;1.88;;;18.80;49.30;;;17.85;49.80;101047.81;12265296;19;20038;-85
2023/01/02 13:00:28;;;;;;;2.63;1.30;;;18.80;49.20;;;17.85;49.43;101050.47;12265206;19;20010;-85
2023/01/02 13:04:48;;;;;;;1.60;1.20;;;18.80;49.20;;;17.80;49.47;101044.72;12264148;19;20275;-85
2023/01/02 13:09:10;;;;;;;4.25;1.55;;;18.80;49.10;;;17.72;49.42;101025.13;12264180;19;20014;-85
2023/01/02 13:13:14;;;;;;;2.53;1.45;;;18.80;49.20;;;17.78;49.52;101041.31;12271046;19;20010;-85
2023/01/02 13:17:47;;;;;;;2.00;1.85;;;18.70;49.50;;;17.80;49.46;101049.16;12277387;19;20030;-85
2023/01/02 13:22:28;;;;;;;3.10;1.23;;;18.70;49.50;;;17.75;49.57;101049.50;12276017;19;20016;-86
2023/01/02 13:26:31;;;;;;;2.33;1.35;;;18.70;49.50;;;17.80;49.40;101049.16;12272517;19;20018;-85
2023/01/02 13:30:33;;;;;;;2.50;1.70;;;18.70;49.40;;;17.78;49.70;101043.94;12271365;19;20014;-85
2023/01/02 13:34:47;;;;;;;4.68;1.25;;;18.70;49.60;;;17.77;49.60;101046.69;12267659;19;20014;-85
2023/01/02 13:39:01;;;;;;;3.80;1.50;;;18.70;49.50;;;17.76;49.29;101058.25;12272370;19;20022;-85
2023/01/02 13:43:09;;;;;;;7.55;1.88;;;18.60;49.40;;;17.52;49.28;101019.63;12266550;19;20014;-85
2023/01/02 13:47:30;;;;;;;2.45;1.52;;;18.60;49.20;;;17.35;49.39;100994.56;12268508;19;20011;-87
2023/01/02 13:51:37;;;;;;;2.45;1.40;;;18.60;49.20;;;17.75;49.56;101067.97;12266710;19;20010;-86
2023/01/02 13:56:15;;;;;;;1.98;1.17;;;18.60;49.20;;;17.70;49.49;101060.41;12267092;19;20486;-85
2023/01/02 14:00:18;;;;;;;2.47;1.45;;;18.60;49.20;;;17.75;49.45;101072.44;12264352;19;20017;-87
2023/01/02 14:04:30;;;;;;;3.03;1.55;;;18.40;49.00;;;17.57;49.15;101043.03;12258956;19;20015;-85
2023/01/02 14:08:39;;;;;;;2.88;1.70;;;18.70;49.10;;;17.72;49.14;101056.84;12260570;19;20018;-86
2023/01/02 14:13:05;;;;;;;2.25;1.40;;;18.60;49.20;;;17.38;49.23;101017.25;12264812;19;20010;-86
2023/01/02 14:18:02;;;;;;;1.60;1.30;;;18.60;49.20;;;17.67;49.36;101068.59;12265456;19;20353;-86
2023/01/02 14:22:14;;;;;;;4.88;1.55;;;18.60;49.30;;;17.53;49.16;101058.28;12261671;19;20024;-85
2023/01/02 14:26:32;;;;;;;1.80;1.25;;;18.50;49.20;;;17.63;49.22;101071.59;12266196;19;20007;-85
2023/01/02 14:30:40;;;;;;;2.78;1.67;;;18.50;49.20;;;17.68;49.40;101077.34;12262583;19;20409;-85
2023/01/02 14:34:48;;;;;;;4.20;1.50;;;18.50;49.10;;;17.24;49.40;101013.91;12261042;19;20386;-85
2023/01/02 14:38:54;;;;;;;1.70;1.60;;;18.50;49.20;;;17.46;49.40;101060.56;12264938;19;20021;-85
2023/01/02 14:43:34;;;;;;;2.97;1.48;;;18.50;49.20;;;17.61;49.38;101107.88;12260589;19;20071;-84
2023/01/02 14:47:42;;;;;;;4.63;1.60;;;18.50;49.20;;;17.38;49.35;101070.03;12261275;19;20011;-85
2023/01/02 14:51:55;;;;;;;3.97;1.17;;;18.50;49.30;;;17.31;49.17;101058.28;12264300;19;20018;-85
2023/01/02 14:56:19;;;;;;;2.83;1.55;;;18.50;49.30;;;17.59;49.23;101097.41;12256100;19;20014;-84
2023/01/02 15:00:25;;;;;;;2.65;1.77;;;18.50;49.30;;;17.52;49.11;101084.81;12254614;19;20022;-85
2023/01/02 15:05:04;;;;;;;2.53;2.10;;;18.50;49.20;;;17.47;49.06;101079.88;12256646;19;20035;-85
2023/01/02 15:09:34;;;;;;;3.03;1.83;;;18.50;49.30;;;17.54;49.26;101107.50;12258829;19;20425;-85
2023/01/02 15:13:36;;;;;;;2.42;1.42;;;18.40;49.30;;;17.24;49.32;101058.75;12256356;19;20018;-85
2023/01/02 15:17:39;;;;;;;5.05;1.38;;;18.40;49.40;;;17.40;49.40;101074.25;12259517;19;20026;-85
2023/01/02 15:21:42;;;;;;;2.38;1.88;;;18.40;49.40;;;17.56;49.02;101112.66;12258421;19;20015;-85
2023/01/02 15:25:44;;;;;;;2.00;1.67;;;18.40;49.40;;;17.55;49.07;101125.03;12259413;19;20507;-85
2023/01/02 15:29:52;;;;;;;2.58;1.58;;;18.40;49.40;;;17.53;49.08;101137.50;12258934;19;20007;-85
2023/01/02 15:33:58;;;;;;;1.52;1.30;;;18.40;49.40;;;17.25;48.93;101091.28;12252734;19;20025;-85
2023/01/02 15:38:01;;;;;;;5.68;2.22;;;18.40;49.40;;;17.21;48.90;101095.13;12256866;19;20011;-85
2023/01/02 15:45:08;;;;;;;2.97;1.98;;;18.40;49.40;;;17.23;49.10;101096.69;12256057;19;20019;-85
2023/01/02 15:46:28;;;;;;;2.28;1.55;;;18.40;49.50;;;17.54;49.23;101170.03;12258055;19;20002;-85
2023/01/02 15:50:31;;;;;;;2.60;1.95;;;18.40;49.50;;;17.03;49.04;101094.72;12256915;19;20010;-85
2023/01/02 15:54:50;;;;;;;4.50;1.95;;;18.40;49.50;;;17.10;49.20;101114.44;12254644;19;20010;-84
2023/01/02 15:58:53;;;;;;;2.72;1.63;;;18.40;49.40;;;16.99;49.24;101102.03;12258243;19;20029;-86
2023/01/02 16:02:58;;;;;;;2.42;1.45;;;18.40;49.40;;;17.35;49.06;101162.69;12253623;19;20018;-85
2023/01/02 16:07:23;;;;;;;6.25;1.55;;;18.30;49.40;;;17.39;48.97;101180.81;12257848;19;20022;-86
2023/01/02 16:11:29;;;;;;;2.15;1.05;;;18.40;49.40;;;16.85;49.19;101099.63;12251392;19;20008;-84
2023/01/02 16:15:36;;;;;;;1.80;1.25;;;18.40;49.40;;;17.39;49.28;101201.09;12253850;19;20006;-85
2023/01/02 16:19:52;;;;;;;3.65;1.33;;;18.40;49.40;;;17.48;49.33;101226.81;12255459;19;20031;-85
2023/01/02 16:23:57;;;;;;;2.70;1.45;;;18.40;49.50;;;17.49;49.06;101236.41;12253575;19;20014;-85
2023/01/02 16:28:10;;;;;;;1.98;1.08;;;18.40;49.60;;;17.18;49.22;101199.13;12250236;19;20078;-85
2023/01/02 16:32:28;;;;;;;1.42;1.08;;;18.40;49.50;;;17.30;49.25;101225.56;12250525;19;20017;-84
2023/01/02 16:36:30;;;;;;;0.90;0.85;;;18.40;49.50;;;17.35;49.14;101257.72;12253757;19;20002;-85
2023/01/02 16:40:47;;;;;;;0.73;0.73;;;18.30;49.50;;;17.25;49.07;101266.34;12252818;19;20077;-85
2023/01/02 16:44:55;;;;;;;0.60;0.60;;;18.20;49.60;;;17.30;49.28;101273.06;12246532;19;20010;-84
2023/01/02 16:48:57;;;;;;;1.17;0.82;;;18.20;49.70;;;17.19;49.24;101274.72;12265242;19;20007;-86
2023/01/02 16:53:05;;;;;;;0.85;0.60;;;18.10;49.70;;;17.17;49.27;101281.88;12259050;19;20015;-85
2023/01/02 16:57:17;;;;;;;1.20;0.70;;;18.10;49.80;;;17.17;49.31;101303.00;12259417;19;20023;-85
2023/01/02 17:01:21;;;;;;;1.48;0.75;;;18.00;49.90;;;17.13;49.28;101298.91;12259818;19;20359;-84
2023/01/02 17:05:40;;;;;;;0.93;0.90;;;18.00;49.90;;;17.03;49.31;101295.28;12260130;19;20124;-85
2023/01/02 17:09:42;;;;;;;2.53;0.80;;;17.90;50.10;;;16.92;49.22;101289.94;12262545;19;20469;-84
2023/01/02 17:13:44;;;;;;;0.57;0.57;;;17.90;50.20;;;17.01;49.23;101313.00;12257280;19;20007;-85
2023/01/02 17:17:46;;;;;;;0.73;0.73;;;17.90;50.40;;;16.83;49.28;101314.38;12259839;19;20130;-85